createdAt,value
2018-05-07T00:00:46.507Z,16.45
2018-05-07T00:03:15.130Z,16.45
2018-05-07T00:05:43.523Z,16.48
2018-05-07T00:08:11.950Z,16.38
2018-05-07T00:10:40.413Z,15.98
2018-05-07T00:13:08.815Z,16.04
2018-05-07T00:15:37.293Z,16.03
2018-05-07T00:18:05.946Z,16.11
2018-05-07T00:20:34.371Z,15.96
2018-05-07T00:23:02.760Z,15.78
2018-05-07T00:25:31.603Z,15.71
2018-05-07T00:28:00.072Z,15.80
2018-05-07T00:30:28.494Z,15.57
2018-05-07T00:32:57.244Z,15.43
2018-05-07T00:35:25.672Z,15.38
2018-05-07T00:37:54.099Z,15.33
2018-05-07T00:40:22.546Z,15.34
2018-05-07T00:42:50.969Z,15.27
2018-05-07T00:45:19.399Z,15.39
2018-05-07T00:47:48.034Z,15.11
2018-05-07T00:50:16.491Z,15.26
2018-05-07T00:52:44.893Z,15.13
2018-05-07T00:55:22.471Z,14.99
2018-05-07T00:57:50.887Z,15.03
2018-05-07T01:00:19.288Z,14.80
2018-05-07T01:02:47.738Z,14.57
2018-05-07T01:05:16.148Z,14.76
2018-05-07T01:07:44.695Z,14.97
2018-05-07T01:10:13.157Z,15.17
2018-05-07T01:12:41.601Z,14.94
2018-05-07T01:15:10.001Z,15.05
2018-05-07T01:17:38.831Z,14.93
2018-05-07T01:20:07.277Z,14.95
2018-05-07T01:22:35.719Z,14.86
2018-05-07T01:25:04.169Z,14.91
2018-05-07T01:27:32.619Z,14.93
2018-05-07T01:30:01.044Z,15.00
2018-05-07T01:32:29.833Z,15.08
2018-05-07T01:34:58.247Z,14.73
2018-05-07T01:37:26.647Z,14.95
2018-05-07T01:39:55.281Z,15.03
2018-05-07T01:42:23.720Z,14.68
2018-05-07T01:44:52.126Z,14.78
2018-05-07T01:47:21.041Z,14.55
2018-05-07T01:49:49.416Z,14.60
2018-05-07T01:52:17.819Z,14.61
2018-05-07T01:54:46.573Z,14.61
2018-05-07T01:57:14.993Z,14.73
2018-05-07T01:59:43.399Z,14.56
2018-05-07T02:02:11.848Z,14.67
2018-05-07T02:04:40.268Z,14.41
2018-05-07T02:07:08.684Z,14.49
2018-05-07T02:09:37.471Z,14.51
2018-05-07T02:12:05.907Z,14.68
2018-05-07T02:14:34.344Z,14.44
2018-05-07T02:17:02.951Z,14.68
2018-05-07T02:19:31.386Z,14.78
2018-05-07T02:21:59.871Z,14.67
2018-05-07T02:24:28.555Z,14.65
2018-05-07T02:26:56.980Z,14.89
2018-05-07T02:29:25.375Z,14.69
2018-05-07T02:31:53.827Z,14.69
2018-05-07T02:34:22.232Z,14.60
2018-05-07T02:36:50.644Z,14.76
2018-05-07T02:39:19.460Z,15.03
2018-05-07T02:41:47.856Z,14.94
2018-05-07T02:44:16.326Z,14.87
2018-05-07T02:46:45.008Z,14.95
2018-05-07T02:49:13.409Z,14.88
2018-05-07T02:51:41.799Z,15.02
2018-05-07T02:54:10.550Z,14.89
2018-05-07T02:56:38.960Z,14.99
2018-05-07T02:59:07.373Z,15.13
2018-05-07T03:01:35.990Z,15.23
2018-05-07T03:04:04.397Z,15.33
2018-05-07T03:06:32.810Z,15.18
2018-05-07T03:09:01.553Z,15.30
2018-05-07T03:11:29.991Z,15.32
2018-05-07T03:13:58.409Z,15.55
2018-05-07T03:16:27.218Z,15.32
2018-05-07T03:18:55.650Z,15.52
2018-05-07T03:21:24.063Z,15.57
2018-05-07T03:23:52.795Z,15.47
2018-05-07T03:26:21.214Z,15.35
2018-05-07T03:28:49.627Z,15.21
2018-05-07T03:31:18.411Z,15.31
2018-05-07T03:33:46.822Z,15.52
2018-05-07T03:36:15.228Z,15.68
2018-05-07T03:38:43.679Z,15.92
2018-05-07T03:41:12.107Z,15.73
2018-05-07T03:43:40.536Z,15.80
2018-05-07T03:46:09.027Z,15.60
2018-05-07T03:48:37.613Z,15.48
2018-05-07T03:51:06.014Z,15.84
2018-05-07T03:53:34.454Z,15.96
2018-05-07T03:56:02.878Z,16.06
2018-05-07T03:58:31.376Z,15.98
2018-05-07T04:00:59.827Z,16.14
2018-05-07T04:03:28.245Z,16.02
2018-05-07T04:05:56.731Z,16.53
2018-05-07T04:08:25.275Z,16.50
2018-05-07T04:10:53.707Z,16.71
2018-05-07T04:13:22.165Z,16.71
2018-05-07T04:15:50.584Z,16.65
2018-05-07T04:18:30.980Z,16.63
2018-05-07T04:21:11.296Z,16.62
2018-05-07T04:23:51.551Z,16.87
2018-05-07T04:26:19.974Z,16.84
2018-05-07T04:28:48.425Z,16.89
2018-05-07T04:31:16.851Z,16.88
2018-05-07T04:33:45.305Z,17.00
2018-05-07T04:36:13.787Z,16.98
2018-05-07T04:38:42.259Z,17.03
2018-05-07T04:41:10.730Z,17.07
2018-05-07T04:43:39.175Z,17.03
2018-05-07T04:46:07.834Z,17.07
2018-05-07T04:48:36.400Z,16.99
2018-05-07T04:51:04.839Z,17.01
2018-05-07T04:53:33.320Z,16.87
2018-05-07T04:56:01.725Z,16.99
2018-05-07T04:58:30.209Z,16.85
2018-05-07T05:00:58.622Z,16.69
2018-05-07T05:03:27.067Z,16.59
2018-05-07T05:05:55.459Z,16.80
2018-05-07T05:08:23.867Z,16.77
2018-05-07T05:10:52.316Z,16.93
2018-05-07T05:13:20.751Z,16.94
2018-05-07T05:15:49.136Z,17.02
2018-05-07T05:18:17.582Z,17.18
2018-05-07T05:20:46.024Z,16.98
2018-05-07T05:23:14.471Z,17.13
2018-05-07T05:25:42.872Z,16.94
2018-05-07T05:28:11.340Z,17.16
2018-05-07T05:30:39.763Z,17.05
2018-05-07T05:33:08.221Z,17.00
2018-05-07T05:35:36.674Z,17.22
2018-05-07T05:38:05.148Z,17.25
2018-05-07T05:40:33.544Z,17.25
2018-05-07T05:43:01.977Z,17.22
2018-05-07T05:45:30.415Z,17.20
2018-05-07T05:47:58.816Z,17.03
2018-05-07T05:50:27.319Z,17.38
2018-05-07T05:52:55.850Z,17.27
2018-05-07T05:55:24.392Z,17.42
2018-05-07T05:57:52.791Z,17.40
2018-05-07T06:00:21.215Z,17.74
2018-05-07T06:02:49.654Z,17.98
2018-05-07T06:05:18.092Z,18.10
2018-05-07T06:07:46.511Z,18.36
2018-05-07T06:10:15.022Z,18.67
2018-05-07T06:12:43.471Z,18.83
2018-05-07T06:15:11.898Z,18.74
2018-05-07T06:17:40.352Z,18.90
2018-05-07T06:20:08.788Z,19.30
2018-05-07T06:22:37.244Z,19.33
2018-05-07T06:25:05.655Z,19.32
2018-05-07T06:27:34.115Z,19.11
2018-05-07T06:30:02.555Z,18.97
2018-05-07T06:32:31.005Z,19.04
2018-05-07T06:34:59.424Z,19.07
2018-05-07T06:37:27.884Z,19.10
2018-05-07T06:39:56.328Z,19.32
2018-05-07T06:42:24.746Z,19.44
2018-05-07T06:44:53.174Z,19.66
2018-05-07T06:47:21.650Z,19.84
2018-05-07T06:49:50.117Z,19.82
2018-05-07T06:52:18.573Z,19.54
2018-05-07T06:54:47.021Z,19.47
2018-05-07T06:57:15.549Z,19.29
2018-05-07T06:59:44.115Z,19.16
2018-05-07T07:02:12.719Z,18.77
2018-05-07T07:04:41.055Z,18.70
2018-05-07T07:07:09.503Z,18.87
2018-05-07T07:09:37.893Z,18.93
2018-05-07T07:12:06.363Z,18.93
2018-05-07T07:14:34.771Z,18.77
2018-05-07T07:17:03.310Z,19.12
2018-05-07T07:19:31.814Z,19.15
2018-05-07T07:22:00.209Z,19.70
2018-05-07T07:24:28.647Z,19.75
2018-05-07T07:26:57.052Z,19.72
2018-05-07T07:29:25.438Z,19.68
2018-05-07T07:31:53.847Z,19.77
2018-05-07T07:34:22.267Z,20.10
2018-05-07T07:36:50.719Z,20.03
2018-05-07T07:39:19.138Z,20.28
2018-05-07T07:41:47.579Z,20.25
2018-05-07T07:44:16.032Z,20.13
2018-05-07T07:46:44.461Z,19.99
2018-05-07T07:49:12.896Z,19.39
2018-05-07T07:51:41.367Z,19.17
2018-05-07T07:54:09.843Z,18.75
2018-05-07T07:56:38.235Z,18.60
2018-05-07T07:59:06.635Z,18.67
2018-05-07T08:01:35.100Z,18.64
2018-05-07T08:04:03.489Z,18.48
2018-05-07T08:06:31.971Z,18.40
2018-05-07T08:09:00.391Z,18.80
2018-05-07T08:11:28.779Z,18.85
2018-05-07T08:13:57.244Z,18.85
2018-05-07T08:16:25.660Z,19.22
2018-05-07T08:18:54.139Z,19.38
2018-05-07T08:21:22.620Z,19.80
2018-05-07T08:23:51.057Z,19.38
2018-05-07T08:26:19.469Z,19.24
2018-05-07T08:28:47.911Z,19.25
2018-05-07T08:31:16.451Z,19.23
2018-05-07T08:33:44.892Z,19.24
2018-05-07T08:36:13.307Z,19.44
2018-05-07T08:38:41.755Z,19.03
2018-05-07T08:41:10.166Z,18.67
2018-05-07T08:43:38.623Z,18.85
2018-05-07T08:46:07.018Z,19.27
2018-05-07T08:48:35.580Z,19.63
2018-05-07T08:51:04.499Z,19.76
2018-05-07T08:53:32.904Z,20.44
2018-05-07T08:56:01.431Z,20.09
2018-05-07T08:58:29.873Z,20.26
2018-05-07T09:00:58.414Z,19.70
2018-05-07T09:03:27.048Z,19.95
2018-05-07T09:05:55.475Z,20.24
2018-05-07T09:08:23.889Z,20.03
2018-05-07T09:10:52.343Z,19.97
2018-05-07T09:13:20.743Z,20.54
2018-05-07T09:15:49.211Z,21.38
2018-05-07T09:18:17.679Z,21.79
2018-05-07T09:20:46.109Z,21.00
2018-05-07T09:23:14.655Z,21.56
2018-05-07T09:25:43.037Z,22.63
2018-05-07T09:28:11.452Z,23.44
2018-05-07T09:30:39.932Z,22.15
2018-05-07T09:33:08.329Z,22.30
2018-05-07T09:35:36.763Z,23.33
2018-05-07T09:38:05.200Z,23.55
2018-05-07T09:40:33.601Z,22.96
2018-05-07T09:43:02.125Z,23.55
2018-05-07T09:45:30.466Z,24.10
2018-05-07T09:47:58.906Z,24.92
2018-05-07T09:50:27.325Z,24.56
2018-05-07T09:52:55.881Z,24.71
2018-05-07T09:55:24.348Z,25.27
2018-05-07T09:58:02.568Z,25.74
2018-05-07T10:00:37.496Z,25.43
2018-05-07T10:03:05.952Z,24.45
2018-05-07T10:05:34.785Z,24.70
2018-05-07T10:08:03.243Z,25.13
2018-05-07T10:10:31.644Z,23.94
2018-05-07T10:13:00.099Z,23.31
2018-05-07T10:15:28.536Z,22.85
2018-05-07T10:17:56.969Z,23.18
2018-05-07T10:20:25.569Z,23.14
2018-05-07T10:22:54.007Z,22.78
2018-05-07T10:25:22.433Z,21.97
2018-05-07T10:27:50.866Z,21.79
2018-05-07T10:30:19.253Z,22.14
2018-05-07T10:32:47.696Z,22.34
2018-05-07T10:35:16.152Z,22.54
2018-05-07T10:37:44.596Z,22.80
2018-05-07T10:40:13.019Z,22.67
2018-05-07T10:42:41.486Z,22.22
2018-05-07T10:45:09.884Z,21.75
2018-05-07T10:47:38.432Z,20.71
2018-05-07T10:50:06.989Z,20.99
2018-05-07T10:52:35.415Z,21.19
2018-05-07T10:55:03.895Z,20.79
2018-05-07T10:57:32.316Z,20.73
2018-05-07T11:00:00.915Z,21.32
2018-05-07T11:02:29.362Z,21.19
2018-05-07T11:04:57.811Z,20.94
2018-05-07T11:07:26.376Z,20.59
2018-05-07T11:09:54.681Z,21.27
2018-05-07T11:12:23.079Z,21.59
2018-05-07T11:14:51.532Z,21.53
2018-05-07T11:17:19.931Z,21.80
2018-05-07T11:19:48.370Z,22.04
2018-05-07T11:22:16.830Z,21.89
2018-05-07T11:24:45.331Z,21.85
2018-05-07T11:27:13.794Z,21.72
2018-05-07T11:29:42.285Z,20.92
2018-05-07T11:32:10.725Z,20.79
2018-05-07T11:34:39.155Z,21.52
2018-05-07T11:37:11.979Z,21.34
2018-05-07T11:39:42.762Z,20.66
2018-05-07T11:42:12.111Z,20.60
2018-05-07T11:44:40.774Z,21.05
2018-05-07T11:47:09.330Z,21.44
2018-05-07T11:49:37.727Z,21.70
2018-05-07T11:52:06.203Z,21.76
2018-05-07T11:54:34.675Z,21.45
2018-05-07T11:57:03.171Z,21.67
2018-05-07T11:59:31.608Z,21.87
2018-05-07T12:02:00.018Z,22.25
2018-05-07T12:04:28.570Z,20.91
2018-05-07T12:06:57.145Z,20.67
2018-05-07T12:09:25.727Z,21.02
2018-05-07T12:11:54.127Z,20.70
2018-05-07T12:14:22.608Z,21.30
2018-05-07T12:16:51.033Z,21.70
2018-05-07T12:19:19.442Z,22.13
2018-05-07T12:21:48.154Z,22.24
2018-05-07T12:24:16.556Z,22.61
2018-05-07T12:26:45.020Z,22.60
2018-05-07T12:29:13.390Z,23.03
2018-05-07T12:31:41.904Z,23.47
2018-05-07T12:34:10.435Z,23.56
2018-05-07T12:36:38.907Z,23.37
2018-05-07T12:39:07.307Z,23.17
2018-05-07T12:41:35.719Z,22.49
2018-05-07T12:44:04.184Z,22.23
2018-05-07T12:46:32.571Z,22.13
2018-05-07T12:49:01.034Z,22.38
2018-05-07T12:51:29.443Z,22.21
2018-05-07T12:53:57.883Z,23.20
2018-05-07T12:56:26.396Z,24.91
2018-05-07T12:58:54.877Z,23.67
2018-05-07T13:01:23.297Z,23.96
2018-05-07T13:03:51.721Z,25.95
2018-05-07T13:06:20.168Z,28.03
2018-05-07T13:08:48.567Z,28.98
2018-05-07T13:11:16.959Z,28.95
2018-05-07T13:13:45.411Z,30.27
2018-05-07T13:16:13.831Z,32.17
2018-05-07T13:18:42.326Z,31.62
2018-05-07T13:21:10.775Z,31.05
2018-05-07T13:23:39.191Z,30.92
2018-05-07T13:26:07.950Z,29.58
2018-05-07T13:28:36.362Z,30.79
2018-05-07T13:31:04.795Z,30.43
2018-05-07T13:33:33.223Z,31.36
2018-05-07T13:36:01.663Z,31.42
2018-05-07T13:38:30.069Z,30.16
2018-05-07T13:40:58.540Z,30.55
2018-05-07T13:43:26.963Z,30.51
2018-05-07T13:45:55.417Z,30.28
2018-05-07T13:48:23.945Z,30.49
2018-05-07T13:50:52.369Z,32.42
2018-05-07T13:53:20.787Z,31.63
2018-05-07T13:55:49.202Z,30.94
2018-05-07T13:58:17.713Z,32.37
2018-05-07T14:00:46.156Z,33.80
2018-05-07T14:03:14.814Z,34.77
2018-05-07T14:05:43.261Z,35.38
2018-05-07T14:08:11.748Z,35.84
2018-05-07T14:10:40.340Z,36.35
2018-05-07T14:13:08.755Z,36.62
2018-05-07T14:15:37.187Z,35.82
2018-05-07T14:18:05.605Z,35.26
2018-05-07T14:20:34.098Z,35.73
2018-05-07T14:23:02.491Z,35.87
2018-05-07T14:25:30.971Z,35.59
2018-05-07T14:27:59.353Z,37.35
2018-05-07T14:30:27.885Z,38.30
2018-05-07T14:32:56.371Z,39.10
2018-05-07T14:35:24.827Z,39.19
2018-05-07T14:37:53.542Z,39.73
2018-05-07T14:40:22.239Z,38.69
2018-05-07T14:42:50.674Z,38.76
2018-05-07T14:45:19.165Z,37.24
2018-05-07T14:47:48.005Z,38.78
2018-05-07T14:50:16.476Z,39.64
2018-05-07T14:52:44.875Z,40.23
2018-05-07T14:55:13.651Z,40.06
2018-05-07T14:57:42.086Z,39.42
2018-05-07T15:00:10.494Z,38.88
2018-05-07T15:02:39.408Z,38.94
2018-05-07T15:05:07.836Z,38.49
2018-05-07T15:07:36.223Z,38.85
2018-05-07T15:10:04.989Z,39.63
2018-05-07T15:12:33.470Z,39.70
2018-05-07T15:15:01.895Z,37.65
2018-05-07T15:17:30.612Z,37.63
2018-05-07T15:19:59.069Z,35.95
2018-05-07T15:22:27.486Z,35.60
2018-05-07T15:24:56.243Z,35.63
2018-05-07T15:27:24.632Z,34.96
2018-05-07T15:29:53.060Z,33.62
2018-05-07T15:32:21.492Z,33.37
2018-05-07T15:34:49.978Z,31.81
2018-05-07T15:37:18.388Z,30.51
2018-05-07T15:39:46.792Z,29.37
2018-05-07T15:42:15.514Z,28.78
2018-05-07T15:44:43.900Z,28.71
2018-05-07T15:47:12.446Z,28.39
2018-05-07T15:49:41.237Z,28.06
2018-05-07T15:52:09.742Z,27.51
2018-05-07T15:54:38.175Z,26.74
2018-05-07T15:57:07.959Z,26.49
2018-05-07T15:59:36.391Z,26.72
2018-05-07T16:02:04.876Z,26.15
2018-05-07T16:04:33.325Z,25.94
2018-05-07T16:07:01.751Z,26.07
2018-05-07T16:09:30.143Z,25.68
2018-05-07T16:11:58.938Z,24.57
2018-05-07T16:14:27.389Z,24.65
2018-05-07T16:16:55.829Z,24.49
2018-05-07T16:19:24.615Z,24.53
2018-05-07T16:21:53.119Z,24.22
2018-05-07T16:24:21.553Z,24.24
2018-05-07T16:26:50.076Z,24.10
2018-05-07T16:29:18.547Z,23.78
2018-05-07T16:31:46.979Z,23.18
2018-05-07T16:34:15.416Z,22.41
2018-05-07T16:36:43.889Z,22.02
2018-05-07T16:39:12.436Z,21.32
2018-05-07T16:41:40.832Z,21.60
2018-05-07T16:44:09.435Z,21.53
2018-05-07T16:46:37.836Z,21.47
2018-05-07T16:49:06.375Z,21.62
2018-05-07T16:51:34.724Z,21.54
2018-05-07T16:54:03.097Z,21.05
2018-05-07T16:56:31.576Z,20.61
2018-05-07T16:59:00.028Z,20.56
2018-05-07T17:01:28.471Z,20.75
2018-05-07T17:03:56.923Z,20.64
2018-05-07T17:06:25.379Z,20.53
2018-05-07T17:08:53.837Z,20.26
2018-05-07T17:11:22.210Z,20.37
2018-05-07T17:13:50.768Z,20.33
2018-05-07T17:16:19.180Z,20.19
2018-05-07T17:18:47.571Z,20.08
2018-05-07T17:21:16.160Z,20.11
2018-05-07T17:23:44.605Z,20.05
2018-05-07T17:26:13.012Z,19.82
2018-05-07T17:28:41.482Z,19.87
2018-05-07T17:31:09.971Z,19.66
2018-05-07T17:33:38.458Z,19.68
2018-05-07T17:36:06.872Z,19.45
2018-05-07T17:38:35.305Z,19.39
2018-05-07T17:41:03.736Z,19.31
2018-05-07T17:43:32.135Z,19.11
2018-05-07T17:46:12.504Z,19.09
2018-05-07T17:48:52.821Z,19.05
2018-05-07T17:51:21.294Z,18.97
2018-05-07T17:53:49.804Z,18.72
2018-05-07T17:56:18.207Z,18.54
2018-05-07T17:58:46.679Z,18.57
2018-05-07T18:01:15.224Z,18.33
2018-05-07T18:03:44.975Z,18.29
2018-05-07T18:06:13.543Z,18.21
2018-05-07T18:08:41.953Z,17.99
2018-05-07T18:11:11.198Z,18.19
2018-05-07T18:13:39.717Z,18.22
2018-05-07T18:16:08.146Z,18.03
2018-05-07T18:18:36.560Z,17.95
2018-05-07T18:21:05.094Z,17.98
2018-05-07T18:23:33.560Z,18.09
2018-05-07T18:26:02.180Z,17.92
2018-05-07T18:28:30.556Z,18.03
2018-05-07T18:30:58.990Z,17.99
2018-05-07T18:33:27.416Z,17.82
2018-05-07T18:35:55.825Z,17.85
2018-05-07T18:38:24.466Z,17.88
2018-05-07T18:40:52.993Z,17.71
2018-05-07T18:43:21.460Z,18.00
2018-05-07T18:45:49.999Z,18.13
2018-05-07T18:48:18.722Z,18.03
2018-05-07T18:50:47.160Z,18.01
2018-05-07T18:53:16.315Z,18.12
2018-05-07T18:55:44.899Z,18.13
2018-05-07T18:58:14.180Z,18.01
2018-05-07T19:00:42.599Z,17.72
2018-05-07T19:03:11.104Z,17.48
2018-05-07T19:05:39.512Z,17.66
2018-05-07T19:08:07.926Z,17.62
2018-05-07T19:10:36.407Z,17.67
2018-05-07T19:13:04.845Z,17.62
2018-05-07T19:15:33.285Z,17.59
2018-05-07T19:18:02.848Z,17.74
2018-05-07T19:20:31.270Z,17.29
2018-05-07T19:22:59.743Z,17.17
2018-05-07T19:25:28.234Z,17.17
2018-05-07T19:27:56.788Z,17.45
2018-05-07T19:30:25.199Z,17.32
2018-05-07T19:32:53.604Z,17.07
2018-05-07T19:35:22.111Z,17.07
2018-05-07T19:37:50.628Z,17.41
2018-05-07T19:40:19.092Z,17.15
2018-05-07T19:42:47.546Z,17.45
2018-05-07T19:45:16.004Z,17.23
2018-05-07T19:47:44.409Z,17.26
2018-05-07T19:50:12.867Z,17.37
2018-05-07T19:52:41.401Z,17.20
2018-05-07T19:55:10.007Z,16.93
2018-05-07T19:57:38.477Z,17.04
2018-05-07T20:00:06.941Z,17.12
2018-05-07T20:02:35.347Z,17.09
2018-05-07T20:05:03.763Z,16.95
2018-05-07T20:07:32.594Z,16.90
2018-05-07T20:10:01.102Z,16.93
2018-05-07T20:12:29.655Z,16.97
2018-05-07T20:14:58.059Z,16.75
2018-05-07T20:17:26.510Z,16.79
2018-05-07T20:19:54.990Z,16.80
2018-05-07T20:22:23.548Z,16.67
2018-05-07T20:24:51.994Z,16.64
2018-05-07T20:27:20.456Z,16.63
2018-05-07T20:29:48.881Z,16.63
2018-05-07T20:32:17.405Z,16.38
2018-05-07T20:34:45.812Z,16.32
2018-05-07T20:37:14.228Z,16.45
2018-05-07T20:39:42.725Z,16.24
2018-05-07T20:42:11.101Z,16.24
2018-05-07T20:44:39.555Z,16.01
2018-05-07T20:47:08.014Z,15.93
2018-05-07T20:49:36.453Z,16.11
2018-05-07T20:52:05.096Z,16.29
2018-05-07T20:54:33.508Z,16.17
2018-05-07T20:57:01.963Z,16.04
2018-05-07T20:59:30.402Z,16.06
2018-05-07T21:01:58.902Z,15.77
2018-05-07T21:04:27.364Z,16.08
2018-05-07T21:06:55.813Z,15.75
2018-05-07T21:09:24.260Z,16.00
2018-05-07T21:11:52.718Z,16.06
2018-05-07T21:14:21.165Z,15.84
2018-05-07T21:16:49.577Z,16.18
2018-05-07T21:19:18.055Z,16.10
2018-05-07T21:21:46.495Z,16.02
2018-05-07T21:24:14.896Z,16.09
2018-05-07T21:26:43.384Z,16.08
2018-05-07T21:29:11.805Z,16.18
2018-05-07T21:31:40.258Z,16.29
2018-05-07T21:34:08.672Z,16.22
2018-05-07T21:36:37.128Z,16.32
2018-05-07T21:39:05.562Z,16.24
2018-05-07T21:41:34.054Z,16.16
2018-05-07T21:44:02.439Z,16.27
2018-05-07T21:46:30.928Z,16.15
2018-05-07T21:48:59.367Z,15.97
2018-05-07T21:51:27.836Z,16.17
2018-05-07T21:53:56.233Z,16.36
2018-05-07T21:56:24.715Z,16.42
2018-05-07T21:58:53.159Z,16.34
2018-05-07T22:01:21.599Z,16.25
2018-05-07T22:03:49.999Z,16.32
2018-05-07T22:06:18.421Z,16.30
2018-05-07T22:08:46.813Z,16.20
2018-05-07T22:11:15.241Z,16.31
2018-05-07T22:13:45.623Z,16.14
2018-05-07T22:16:14.069Z,16.12
2018-05-07T22:18:42.477Z,15.99
2018-05-07T22:21:10.925Z,16.03
2018-05-07T22:23:39.379Z,16.21
2018-05-07T22:26:07.843Z,16.15
2018-05-07T22:28:36.219Z,16.04
2018-05-07T22:31:04.668Z,16.18
2018-05-07T22:33:33.115Z,16.21
2018-05-07T22:36:01.560Z,16.36
2018-05-07T22:38:30.002Z,16.42
2018-05-07T22:40:58.424Z,16.35
2018-05-07T22:43:26.888Z,16.09
2018-05-07T22:45:55.435Z,16.35
2018-05-07T22:48:23.895Z,16.15
2018-05-07T22:50:52.366Z,16.38
2018-05-07T22:53:20.740Z,16.33
2018-05-07T22:55:49.248Z,16.29
2018-05-07T22:58:17.660Z,16.10
2018-05-07T23:00:46.111Z,16.17
2018-05-07T23:03:14.593Z,16.33
2018-05-07T23:05:43.023Z,16.29
2018-05-07T23:08:11.495Z,16.27
2018-05-07T23:10:39.962Z,16.35
2018-05-07T23:13:08.359Z,16.09
2018-05-07T23:15:36.803Z,15.94
2018-05-07T23:18:05.211Z,15.74
2018-05-07T23:20:33.668Z,15.99
2018-05-07T23:23:02.140Z,16.11
2018-05-07T23:25:30.564Z,16.11
2018-05-07T23:27:58.997Z,16.17
2018-05-07T23:30:27.396Z,16.15
2018-05-07T23:32:55.895Z,16.13
2018-05-07T23:35:24.306Z,16.31
2018-05-07T23:37:52.747Z,16.31
2018-05-07T23:40:21.179Z,16.37
2018-05-07T23:42:49.637Z,16.46
2018-05-07T23:45:18.122Z,16.47
2018-05-07T23:47:46.579Z,16.52
2018-05-07T23:50:14.984Z,16.48
2018-05-07T23:52:43.425Z,16.59
2018-05-07T23:55:11.810Z,16.47
2018-05-07T23:57:40.239Z,16.24
